Time;durP1;ratioP1;P1;durP2;ratioP2;P2;SDS_P1;SDS_P2;PMS_P1;PMS_P2;Temp;Humidity;BMP_temperature;BMP_pressure;BME280_temperature;BME280_humidity;BME280_pressure;Samples;Min_cycle;Max_cycle;Signal;HPM_P1;HPM_P2
2022/08/22 16:32:24;;;;;;;10.43;2.05;;;23.40;62.10;;;;;;5124056;27;20164;-66
2022/08/22 16:34:50;;;;;;;7.53;1.92;;;22.70;71.00;;;;;;5124705;27;20477;-65
2022/08/22 16:37:33;;;;;;;7.13;2.17;;;22.60;75.50;;;;;;5123686;27;20036;-66
2022/08/22 16:40:03;;;;;;;12.32;2.70;;;22.60;75.00;;;;;;5124150;28;20430;-66
2022/08/22 16:43:08;;;;;;;9.93;1.95;;;22.70;70.70;;;;;;5122329;27;20039;-66
2022/08/22 16:45:39;;;;;;;9.57;2.53;;;22.60;75.40;;;;;;5126385;27;20051;-66
2022/08/22 16:48:29;;;;;;;9.88;2.40;;;22.60;74.00;;;;;;5126348;27;20039;-66
2022/08/22 16:51:12;;;;;;;12.50;2.20;;;22.50;73.80;;;;;;5120819;27;20099;-66
2022/08/22 16:53:38;;;;;;;7.57;2.03;;;22.50;70.40;;;;;;5123773;27;20047;-67
2022/08/22 16:56:04;;;;;;;5.80;2.05;;;22.40;75.50;;;;;;5124042;27;20830;-66
2022/08/22 16:59:23;;;;;;;10.07;2.15;;;22.40;76.90;;;;;;5122795;27;20035;-66
2022/08/22 17:02:17;;;;;;;12.15;2.20;;;22.40;76.10;;;;;;5102952;28;20457;-66
2022/08/22 17:04:58;;;;;;;6.93;2.08;;;22.40;78.20;;;;;;5119669;27;20051;-66
2022/08/22 17:07:46;;;;;;;8.82;2.25;;;22.40;85.50;;;;;;5123070;27;20069;-66
2022/08/22 17:10:31;;;;;;;;;;;22.30;85.60;;;;;;5106672;28;20584;-66
2022/08/22 17:13:12;;;;;;;8.13;2.47;;;22.30;83.90;;;;;;5122043;27;19971;-66
2022/08/22 17:16:00;;;;;;;7.53;2.30;;;22.40;82.50;;;;;;5126135;27;20056;-66
2022/08/22 17:18:53;;;;;;;12.82;2.20;;;22.40;87.70;;;;;;5124028;27;20036;-66
2022/08/22 17:21:27;;;;;;;5.93;1.95;;;22.50;86.10;;;;;;5117980;27;20049;-66
2022/08/22 17:24:16;;;;;;;8.85;2.05;;;22.50;84.00;;;;;;5122849;27;20043;-66
2022/08/22 17:27:15;;;;;;;7.55;2.25;;;22.40;82.70;;;;;;5118682;28;20115;-66
2022/08/22 17:29:52;;;;;;;7.28;2.20;;;22.40;82.00;;;;;;5119972;28;20058;-66
2022/08/22 17:32:32;;;;;;;10.18;2.20;;;22.30;86.00;;;;;;5105456;28;20055;-66
2022/08/22 17:35:11;;;;;;;6.22;1.83;;;22.30;88.70;;;;;;5105405;28;20485;-66
2022/08/22 17:38:04;;;;;;;6.72;2.30;;;22.20;90.10;;;;;;5107871;28;20040;-66
2022/08/22 17:41:06;;;;;;;8.43;1.65;;;22.10;90.00;;;;;;5105737;27;20044;-67
2022/08/22 17:43:45;;;;;;;5.35;2.17;;;22.10;90.10;;;;;;5091317;28;20466;-66
2022/08/22 17:46:34;;;;;;;9.02;2.28;;;22.00;89.80;;;;;;5107544;28;20397;-66
2022/08/22 17:49:23;;;;;;;10.02;2.50;;;22.00;91.20;;;;;;5096425;28;20105;-66
2022/08/22 17:52:21;;;;;;;9.00;2.42;;;22.00;91.40;;;;;;5107953;28;20139;-66
2022/08/22 17:54:59;;;;;;;11.10;2.95;;;22.00;92.40;;;;;;5106540;28;20067;-66
2022/08/22 17:57:34;;;;;;;14.93;2.65;;;22.00;91.80;;;;;;5095221;28;20493;-66
2022/08/22 18:00:07;;;;;;;9.35;1.85;;;21.90;91.90;;;;;;5107085;28;20092;-66
2022/08/22 18:02:59;;;;;;;6.40;2.05;;;21.80;88.60;;;;;;5101758;28;20052;-66
2022/08/22 18:05:37;;;;;;;9.48;1.65;;;21.80;91.40;;;;;;5105032;28;20036;-66
2022/08/22 18:08:24;;;;;;;11.10;2.97;;;21.70;91.50;;;;;;5107499;28;20058;-66
2022/08/22 18:11:07;;;;;;;10.95;2.28;;;21.70;92.80;;;;;;5093628;28;20399;-66
2022/08/22 18:13:33;;;;;;;6.68;2.13;;;21.60;94.70;;;;;;5106872;28;20077;-66
2022/08/22 18:16:12;;;;;;;12.25;2.13;;;21.60;94.70;;;;;;5108468;28;20035;-65
2022/08/22 18:19:11;;;;;;;6.85;1.90;;;21.50;95.80;;;;;;5109353;28;20043;-66
2022/08/22 18:21:47;;;;;;;11.68;2.55;;;21.40;97.30;;;;;;5091071;28;20048;-66
2022/08/22 18:24:19;;;;;;;10.02;2.60;;;21.30;98.20;;;;;;5106443;27;20123;-66
2022/08/22 18:26:56;;;;;;;15.10;2.88;;;21.20;98.70;;;;;;5105156;28;20549;-65
2022/08/22 18:29:43;;;;;;;5.63;2.35;;;21.10;99.20;;;;;;5106781;28;20069;-66
2022/08/22 18:32:08;;;;;;;7.95;2.25;;;21.00;99.40;;;;;;5104195;28;20047;-66
2022/08/22 18:34:44;;;;;;;10.32;2.28;;;20.90;99.90;;;;;;5105335;28;20051;-66
2022/08/22 18:37:34;;;;;;;11.43;2.17;;;20.80;99.90;;;;;;5110568;27;20051;-66
2022/08/22 18:40:35;;;;;;;12.02;2.47;;;20.80;99.90;;;;;;5106627;27;20043;-67
2022/08/22 18:43:33;;;;;;;10.77;2.33;;;20.70;99.90;;;;;;5080341;28;20090;-66
2022/08/22 18:46:01;;;;;;;12.35;2.47;;;20.70;99.90;;;;;;5103222;28;20051;-66
2022/08/22 18:48:27;;;;;;;9.90;2.17;;;20.60;99.90;;;;;;5104903;27;20055;-66
2022/08/22 18:51:23;;;;;;;8.75;1.98;;;20.60;99.90;;;;;;5107356;28;20046;-65
2022/08/22 18:53:58;;;;;;;9.43;1.77;;;20.60;99.90;;;;;;5107797;28;20031;-66
2022/08/22 18:56:44;;;;;;;11.30;2.30;;;20.50;99.90;;;;;;5105186;27;20096;-66
2022/08/22 18:59:28;;;;;;;12.50;2.20;;;20.40;99.90;;;;;;5082937;28;20047;-66
2022/08/22 19:02:28;;;;;;;7.78;2.03;;;20.40;99.90;;;;;;5107611;28;20042;-66
2022/08/22 19:04:53;;;;;;;13.15;2.13;;;20.30;99.90;;;;;;5106828;28;20044;-66
2022/08/22 19:07:22;;;;;;;9.60;1.65;;;20.30;99.90;;;;;;5107114;28;20055;-66
2022/08/22 19:10:07;;;;;;;8.48;1.77;;;20.20;99.90;;;;;;5099865;28;20048;-66
2022/08/22 19:13:10;;;;;;;8.48;1.85;;;20.20;99.90;;;;;;5101339;28;20049;-66
2022/08/22 19:15:51;;;;;;;8.73;2.30;;;20.10;99.90;;;;;;5107163;28;20100;-66
2022/08/22 19:18:35;;;;;;;9.93;2.13;;;20.10;99.90;;;;;;5105916;28;20085;-66
2022/08/22 19:24:07;;;;;;;8.85;2.08;;;20.00;99.90;;;;;;5096215;28;20044;-66
2022/08/22 19:26:46;;;;;;;9.18;2.00;;;19.90;99.90;;;;;;5102955;28;20122;-66
2022/08/22 19:29:16;;;;;;;6.75;2.35;;;19.90;99.90;;;;;;5102523;28;20051;-66
2022/08/22 19:31:49;;;;;;;8.40;2.25;;;19.90;99.90;;;;;;5103349;28;20051;-66
2022/08/22 19:34:24;;;;;;;7.32;2.03;;;19.80;99.90;;;;;;5098249;28;20043;-66
2022/08/22 19:37:12;;;;;;;11.57;2.20;;;19.80;99.90;;;;;;5102867;28;20546;-66
2022/08/22 19:39:40;;;;;;;10.85;1.98;;;19.70;99.90;;;;;;5100674;28;20047;-66
2022/08/22 19:42:19;;;;;;;6.85;2.00;;;19.60;99.90;;;;;;5105508;28;20043;-66
2022/08/22 19:45:05;;;;;;;5.95;2.33;;;19.60;99.90;;;;;;5102669;28;20510;-66
2022/08/22 19:47:34;;;;;;;9.20;2.05;;;19.50;99.90;;;;;;5104604;28;20047;-66
2022/08/22 19:50:34;;;;;;;7.30;1.70;;;19.50;99.90;;;;;;5104307;27;20040;-66
2022/08/22 19:53:36;;;;;;;11.43;1.90;;;19.50;99.90;;;;;;5091275;27;20079;-66
2022/08/22 19:56:21;;;;;;;9.98;1.98;;;19.50;99.90;;;;;;5094678;28;20100;-66
2022/08/22 19:58:57;;;;;;;10.30;2.10;;;19.40;99.90;;;;;;5105722;28;20529;-66
2022/08/22 20:01:50;;;;;;;8.63;1.98;;;19.40;99.90;;;;;;5104213;28;20061;-66
2022/08/22 20:04:55;;;;;;;10.85;2.10;;;19.40;99.90;;;;;;5093734;28;20040;-66
2022/08/22 20:07:54;;;;;;;16.05;2.20;;;19.40;99.90;;;;;;5106801;28;20504;-66
2022/08/22 20:10:23;;;;;;;5.38;1.77;;;19.40;99.90;;;;;;5093431;28;20048;-66
2022/08/22 20:13:19;;;;;;;10.43;2.05;;;19.40;99.90;;;;;;5100413;28;20039;-66
2022/08/22 20:16:21;;;;;;;11.52;2.28;;;19.30;99.90;;;;;;5106730;28;20048;-66
2022/08/22 20:18:55;;;;;;;14.32;2.60;;;19.40;99.90;;;;;;5101809;28;20146;-66
2022/08/22 20:21:42;;;;;;;8.40;2.83;;;19.30;99.90;;;;;;5105523;28;20044;-66
2022/08/22 20:24:19;;;;;;;7.63;2.20;;;19.30;99.90;;;;;;5106721;28;20054;-66
2022/08/22 20:26:51;;;;;;;5.75;1.85;;;19.30;99.90;;;;;;5084662;28;20048;-66
2022/08/22 20:29:19;;;;;;;12.37;2.60;;;19.20;99.90;;;;;;5105755;28;20050;-66
2022/08/22 20:31:50;;;;;;;8.38;2.40;;;19.20;99.90;;;;;;5100257;28;20293;-66
2022/08/22 20:34:23;;;;;;;11.07;2.28;;;19.20;99.90;;;;;;5104357;28;20153;-66
2022/08/22 20:36:50;;;;;;;9.70;2.00;;;19.20;99.90;;;;;;5104233;28;20405;-66
2022/08/22 20:39:24;;;;;;;12.63;2.47;;;19.20;99.90;;;;;;5103133;28;20047;-66
2022/08/22 20:41:55;;;;;;;8.45;1.75;;;19.20;99.90;;;;;;5105239;28;20047;-66
2022/08/22 20:44:23;;;;;;;4.68;1.85;;;19.20;99.90;;;;;;5104892;28;20043;-66
2022/08/22 20:46:56;;;;;;;9.50;2.10;;;19.20;99.90;;;;;;5105185;28;20039;-66
2022/08/22 20:49:24;;;;;;;11.80;2.30;;;19.20;99.90;;;;;;5103582;28;20047;-66
2022/08/22 20:52:04;;;;;;;11.00;2.20;;;19.20;99.90;;;;;;5104576;28;20090;-65
2022/08/22 20:54:33;;;;;;;9.90;2.40;;;19.10;99.90;;;;;;5105886;28;20104;-66
2022/08/22 20:57:09;;;;;;;10.65;2.08;;;19.10;99.90;;;;;;5104841;28;20061;-66
2022/08/22 20:59:40;;;;;;;11.00;2.30;;;19.20;99.90;;;;;;5100241;28;20138;-66
2022/08/22 21:02:05;;;;;;;10.52;2.65;;;19.20;99.90;;;;;;5104493;28;20032;-66
2022/08/22 21:04:56;;;;;;;7.72;2.15;;;19.20;99.90;;;;;;5103684;28;20051;-66
2022/08/22 21:07:34;;;;;;;12.38;2.17;;;19.20;99.90;;;;;;5108128;28;20032;-66
2022/08/22 21:13:19;;;;;;;10.20;2.08;;;19.20;99.90;;;;;;5107261;28;20540;-66
2022/08/22 21:16:11;;;;;;;6.22;1.98;;;19.20;99.90;;;;;;5100068;28;20066;-66
2022/08/22 21:18:40;;;;;;;8.90;1.88;;;19.20;99.90;;;;;;5094528;28;20051;-66
2022/08/22 21:21:20;;;;;;;9.00;1.92;;;19.20;99.90;;;;;;5109172;28;20062;-66
2022/08/22 21:23:52;;;;;;;7.15;1.75;;;19.20;99.90;;;;;;5108671;28;20401;-66
2022/08/22 21:26:29;;;;;;;7.43;2.17;;;19.20;99.90;;;;;;5109978;27;20066;-66
2022/08/22 21:29:17;;;;;;;8.30;2.75;;;19.20;99.90;;;;;;5107712;28;20048;-66
2022/08/22 21:31:45;;;;;;;10.02;2.13;;;19.30;99.90;;;;;;5106755;27;20066;-66
2022/08/22 21:34:18;;;;;;;14.13;2.58;;;19.30;99.90;;;;;;5108869;27;20397;-66
2022/08/22 21:36:44;;;;;;;7.32;2.20;;;19.30;99.90;;;;;;5107990;27;20047;-66
2022/08/22 21:39:31;;;;;;;8.63;2.20;;;19.20;99.90;;;;;;5091834;28;20379;-66
2022/08/22 21:42:00;;;;;;;11.40;2.40;;;19.20;99.90;;;;;;5108261;27;20048;-66
2022/08/22 21:44:34;;;;;;;9.13;2.30;;;19.20;99.90;;;;;;5106999;28;20035;-66
2022/08/22 21:47:15;;;;;;;5.70;1.70;;;19.20;99.90;;;;;;5107679;27;20083;-66
2022/08/22 21:50:05;;;;;;;8.60;2.10;;;19.10;99.90;;;;;;5107720;28;20364;-66
2022/08/22 21:52:40;;;;;;;8.35;2.00;;;19.10;99.90;;;;;;5107982;27;20063;-66
2022/08/22 21:55:25;;;;;;;7.03;1.95;;;19.10;99.90;;;;;;5107921;28;20092;-66
2022/08/22 21:58:26;;;;;;;7.75;2.03;;;19.10;99.90;;;;;;5106468;28;20047;-66
2022/08/22 22:00:59;;;;;;;19.50;2.72;;;19.00;99.90;;;;;;5107564;28;20066;-66
2022/08/22 22:03:43;;;;;;;6.47;1.98;;;19.00;99.90;;;;;;5107112;28;20039;-66
2022/08/22 22:06:08;;;;;;;7.22;1.77;;;18.90;99.90;;;;;;5106373;28;20426;-66
2022/08/22 22:08:34;;;;;;;5.78;1.70;;;18.90;99.90;;;;;;5089822;28;20173;-66
2022/08/22 22:11:03;;;;;;;7.07;1.88;;;18.90;99.90;;;;;;5105119;28;20031;-66
2022/08/22 22:13:30;;;;;;;6.13;1.65;;;18.80;99.90;;;;;;5106564;27;20171;-66
2022/08/22 22:15:56;;;;;;;10.80;2.38;;;18.80;99.90;;;;;;5106401;28;20308;-66
2022/08/22 22:18:29;;;;;;;5.93;2.00;;;18.80;99.90;;;;;;5089165;28;20128;-66
2022/08/22 22:20:56;;;;;;;7.50;1.73;;;18.70;99.90;;;;;;5088881;28;20120;-66
2022/08/22 22:23:23;;;;;;;8.77;1.80;;;18.70;99.90;;;;;;5105915;28;20484;-66
2022/08/22 22:25:50;;;;;;;7.18;2.20;;;18.60;99.90;;;;;;5107188;28;20047;-66
2022/08/22 22:28:23;;;;;;;6.70;2.00;;;18.60;99.90;;;;;;5107717;28;20105;-66
2022/08/22 22:30:52;;;;;;;10.88;2.00;;;18.60;99.90;;;;;;5107970;28;20052;-66
2022/08/22 22:33:20;;;;;;;5.25;1.88;;;18.50;99.90;;;;;;5099941;28;20044;-67
2022/08/22 22:35:48;;;;;;;7.85;2.38;;;18.50;99.90;;;;;;5107265;28;20094;-66
2022/08/22 22:38:14;;;;;;;11.20;1.70;;;18.40;99.90;;;;;;5109149;28;20043;-66
2022/08/22 22:40:41;;;;;;;4.97;1.52;;;18.40;99.90;;;;;;5105539;28;20392;-66
2022/08/22 22:43:11;;;;;;;4.85;1.45;;;18.30;99.90;;;;;;5108687;28;20039;-66
2022/08/22 22:45:37;;;;;;;5.82;1.63;;;18.30;99.90;;;;;;5107524;28;20049;-66
2022/08/22 22:48:04;;;;;;;11.63;1.77;;;18.20;99.90;;;;;;5107130;28;20067;-66
2022/08/22 22:50:30;;;;;;;6.28;1.90;;;18.20;99.90;;;;;;5108183;28;20495;-66
2022/08/22 22:52:56;;;;;;;8.80;2.00;;;18.20;99.90;;;;;;5104345;28;20114;-66
2022/08/22 22:55:22;;;;;;;11.18;2.20;;;18.10;99.90;;;;;;5108232;28;20177;-66
2022/08/22 22:57:48;;;;;;;9.25;2.08;;;18.10;99.90;;;;;;5106538;28;20119;-66
2022/08/22 23:00:15;;;;;;;7.35;2.15;;;18.00;99.90;;;;;;5106711;28;20197;-66
2022/08/22 23:02:41;;;;;;;4.72;1.45;;;18.00;99.90;;;;;;5102515;28;20048;-66
2022/08/22 23:05:08;;;;;;;5.68;2.33;;;18.00;99.90;;;;;;5108025;28;20810;-66
2022/08/22 23:07:35;;;;;;;8.43;2.15;;;17.80;99.90;;;;;;5106474;28;20035;-66
2022/08/22 23:10:03;;;;;;;14.48;2.40;;;17.90;99.90;;;;;;5099538;28;20077;-66
2022/08/22 23:12:29;;;;;;;6.23;1.80;;;18.00;99.90;;;;;;5102557;28;20039;-67
2022/08/22 23:14:55;;;;;;;4.82;1.70;;;17.90;99.90;;;;;;5105167;28;20293;-66
2022/08/22 23:17:21;;;;;;;5.57;1.60;;;17.90;99.90;;;;;;5107934;28;20036;-66
2022/08/22 23:19:47;;;;;;;8.10;2.30;;;17.80;99.90;;;;;;5105918;28;20036;-66
2022/08/22 23:22:12;;;;;;;7.97;1.65;;;17.80;99.90;;;;;;5107205;28;20097;-66
2022/08/22 23:24:39;;;;;;;7.40;1.83;;;17.80;99.90;;;;;;5106876;28;20509;-66
2022/08/22 23:27:07;;;;;;;8.98;2.00;;;17.80;99.90;;;;;;5105684;28;20058;-66
2022/08/22 23:29:34;;;;;;;6.60;1.83;;;17.70;99.90;;;;;;5105610;28;20047;-66
2022/08/22 23:32:02;;;;;;;9.05;2.28;;;17.70;99.90;;;;;;5099481;28;20059;-67
2022/08/22 23:34:30;;;;;;;8.32;2.30;;;17.60;99.90;;;;;;5101814;28;20124;-66
2022/08/22 23:36:58;;;;;;;9.80;2.00;;;17.60;99.90;;;;;;5104789;28;20039;-66
2022/08/22 23:39:25;;;;;;;11.65;2.20;;;17.60;99.90;;;;;;5089718;28;20067;-66
2022/08/22 23:41:51;;;;;;;7.78;1.88;;;17.50;99.90;;;;;;5105479;28;20051;-66
2022/08/22 23:44:20;;;;;;;9.63;2.13;;;17.50;99.90;;;;;;5107269;28;20054;-67
2022/08/22 23:46:46;;;;;;;9.55;2.50;;;17.40;99.90;;;;;;5106227;28;20040;-66
2022/08/22 23:49:12;;;;;;;7.40;2.08;;;17.40;99.90;;;;;;5105866;28;20917;-66
2022/08/22 23:51:39;;;;;;;8.13;2.17;;;17.40;99.90;;;;;;5107584;28;20050;-66
2022/08/22 23:54:05;;;;;;;9.05;2.30;;;17.30;99.90;;;;;;5105557;27;20496;-66
2022/08/22 23:56:38;;;;;;;2.80;1.55;;;17.30;99.90;;;;;;5107574;28;20466;-66
2022/08/22 23:59:07;;;;;;;5.90;1.45;;;17.30;99.90;;;;;;5090817;28;20120;-66
